sensor_id;sensor_type;location;lat;lon;timestamp;pressure;altitude;pressure_sealevel;temperature;humidity
15272;BME280;7737;51.578;7.268;2023-08-01T00:01:39;99522.16;;;16.82;100.00
15272;BME280;7737;51.578;7.268;2023-08-01T00:04:05;99530.09;;;16.83;100.00
15272;BME280;7737;51.578;7.268;2023-08-01T00:06:32;99528.63;;;16.98;100.00
15272;BME280;7737;51.578;7.268;2023-08-01T00:08:58;99532.06;;;16.91;100.00
15272;BME280;7737;51.578;7.268;2023-08-01T00:11:25;99532.59;;;16.94;100.00
15272;BME280;7737;51.578;7.268;2023-08-01T00:13:52;99531.31;;;16.98;100.00
15272;BME280;7737;51.578;7.268;2023-08-01T00:16:18;99526.53;;;17.02;100.00
15272;BME280;7737;51.578;7.268;2023-08-01T00:18:46;99524.41;;;16.96;100.00
15272;BME280;7737;51.578;7.268;2023-08-01T00:21:12;99513.09;;;17.02;100.00
15272;BME280;7737;51.578;7.268;2023-08-01T00:23:39;99504.31;;;17.10;100.00
15272;BME280;7737;51.578;7.268;2023-08-01T00:26:06;99501.44;;;17.11;100.00
15272;BME280;7737;51.578;7.268;2023-08-01T00:28:32;99493.69;;;17.08;100.00
15272;BME280;7737;51.578;7.268;2023-08-01T00:31:03;99486.53;;;16.99;100.00
15272;BME280;7737;51.578;7.268;2023-08-01T00:33:30;99493.28;;;17.03;100.00
15272;BME280;7737;51.578;7.268;2023-08-01T00:35:58;99498.94;;;17.00;100.00
15272;BME280;7737;51.578;7.268;2023-08-01T00:38:24;99511.56;;;16.99;100.00
15272;BME280;7737;51.578;7.268;2023-08-01T00:40:51;99498.41;;;16.96;100.00
15272;BME280;7737;51.578;7.268;2023-08-01T00:43:18;99483.72;;;16.91;100.00
15272;BME280;7737;51.578;7.268;2023-08-01T00:45:44;99479.16;;;17.01;100.00
15272;BME280;7737;51.578;7.268;2023-08-01T00:48:12;99482.72;;;16.92;100.00
15272;BME280;7737;51.578;7.268;2023-08-01T00:50:39;99465.47;;;16.94;100.00
15272;BME280;7737;51.578;7.268;2023-08-01T00:53:07;99476.13;;;16.86;100.00
15272;BME280;7737;51.578;7.268;2023-08-01T00:55:34;99463.69;;;16.85;100.00
15272;BME280;7737;51.578;7.268;2023-08-01T00:58:01;99471.88;;;16.84;100.00
15272;BME280;7737;51.578;7.268;2023-08-01T01:00:28;99456.47;;;16.86;100.00
15272;BME280;7737;51.578;7.268;2023-08-01T01:02:55;99456.19;;;16.89;100.00
15272;BME280;7737;51.578;7.268;2023-08-01T01:05:23;99453.41;;;16.81;100.00
15272;BME280;7737;51.578;7.268;2023-08-01T01:07:50;99455.97;;;16.73;100.00
15272;BME280;7737;51.578;7.268;2023-08-01T01:10:19;99443.94;;;16.77;100.00
15272;BME280;7737;51.578;7.268;2023-08-01T01:12:45;99441.81;;;16.80;100.00
15272;BME280;7737;51.578;7.268;2023-08-01T01:15:13;99434.19;;;16.76;100.00
15272;BME280;7737;51.578;7.268;2023-08-01T01:17:39;99439.13;;;16.80;100.00
15272;BME280;7737;51.578;7.268;2023-08-01T01:20:06;99434.16;;;16.85;100.00
15272;BME280;7737;51.578;7.268;2023-08-01T01:22:35;99426.56;;;16.81;100.00
15272;BME280;7737;51.578;7.268;2023-08-01T01:25:04;99432.31;;;16.86;100.00
15272;BME280;7737;51.578;7.268;2023-08-01T01:27:31;99438.28;;;16.80;100.00
15272;BME280;7737;51.578;7.268;2023-08-01T01:29:58;99436.31;;;16.72;100.00
15272;BME280;7737;51.578;7.268;2023-08-01T01:32:27;99432.78;;;16.72;100.00
15272;BME280;7737;51.578;7.268;2023-08-01T01:34:54;99425.31;;;16.66;100.00
15272;BME280;7737;51.578;7.268;2023-08-01T01:37:21;99424.06;;;16.60;100.00
15272;BME280;7737;51.578;7.268;2023-08-01T01:39:49;99419.13;;;16.65;100.00
15272;BME280;7737;51.578;7.268;2023-08-01T01:42:15;99401.31;;;16.64;100.00
15272;BME280;7737;51.578;7.268;2023-08-01T01:44:42;99401.88;;;16.68;100.00
15272;BME280;7737;51.578;7.268;2023-08-01T01:47:08;99390.88;;;16.61;100.00
15272;BME280;7737;51.578;7.268;2023-08-01T01:49:35;99385.78;;;16.68;100.00
15272;BME280;7737;51.578;7.268;2023-08-01T01:52:01;99391.44;;;16.65;100.00
15272;BME280;7737;51.578;7.268;2023-08-01T01:54:28;99382.38;;;16.66;100.00
15272;BME280;7737;51.578;7.268;2023-08-01T01:56:56;99379.69;;;16.66;100.00
15272;BME280;7737;51.578;7.268;2023-08-01T01:59:23;99388.88;;;16.73;100.00
15272;BME280;7737;51.578;7.268;2023-08-01T02:01:49;99377.63;;;16.60;100.00
15272;BME280;7737;51.578;7.268;2023-08-01T02:04:16;99378.03;;;16.65;100.00
15272;BME280;7737;51.578;7.268;2023-08-01T02:06:43;99380.31;;;16.60;100.00
15272;BME280;7737;51.578;7.268;2023-08-01T02:09:10;99381.00;;;16.62;100.00
15272;BME280;7737;51.578;7.268;2023-08-01T02:11:36;99366.56;;;16.63;100.00
15272;BME280;7737;51.578;7.268;2023-08-01T02:14:04;99372.38;;;16.68;100.00
15272;BME280;7737;51.578;7.268;2023-08-01T02:16:31;99365.75;;;16.62;100.00
15272;BME280;7737;51.578;7.268;2023-08-01T02:18:57;99369.69;;;16.58;100.00
15272;BME280;7737;51.578;7.268;2023-08-01T02:21:24;99375.91;;;16.59;100.00
15272;BME280;7737;51.578;7.268;2023-08-01T02:23:50;99379.69;;;16.66;100.00
15272;BME280;7737;51.578;7.268;2023-08-01T02:26:17;99374.31;;;16.66;100.00
15272;BME280;7737;51.578;7.268;2023-08-01T02:28:43;99375.06;;;16.68;100.00
15272;BME280;7737;51.578;7.268;2023-08-01T02:31:11;99367.41;;;16.63;100.00
15272;BME280;7737;51.578;7.268;2023-08-01T02:33:38;99374.72;;;16.71;100.00
15272;BME280;7737;51.578;7.268;2023-08-01T02:36:04;99377.00;;;16.66;100.00
15272;BME280;7737;51.578;7.268;2023-08-01T02:38:31;99375.88;;;16.68;100.00
15272;BME280;7737;51.578;7.268;2023-08-01T02:40:57;99374.31;;;16.66;100.00
15272;BME280;7737;51.578;7.268;2023-08-01T02:43:24;99369.56;;;16.60;100.00
15272;BME280;7737;51.578;7.268;2023-08-01T02:45:51;99377.91;;;16.57;100.00
15272;BME280;7737;51.578;7.268;2023-08-01T02:48:18;99370.72;;;16.57;100.00
15272;BME280;7737;51.578;7.268;2023-08-01T02:50:45;99371.69;;;16.56;100.00
15272;BME280;7737;51.578;7.268;2023-08-01T02:53:12;99375.06;;;16.58;100.00
15272;BME280;7737;51.578;7.268;2023-08-01T02:55:38;99377.63;;;16.60;100.00
15272;BME280;7737;51.578;7.268;2023-08-01T02:58:05;99376.06;;;16.48;100.00
15272;BME280;7737;51.578;7.268;2023-08-01T03:00:31;99385.28;;;16.55;100.00
15272;BME280;7737;51.578;7.268;2023-08-01T03:02:58;99378.75;;;16.48;100.00
15272;BME280;7737;51.578;7.268;2023-08-01T03:05:26;99380.72;;;16.45;100.00
15272;BME280;7737;51.578;7.268;2023-08-01T03:07:52;99382.72;;;16.53;100.00
15272;BME280;7737;51.578;7.268;2023-08-01T03:10:19;99379.59;;;16.48;100.00
15272;BME280;7737;51.578;7.268;2023-08-01T03:12:45;99381.88;;;16.53;100.00
15272;BME280;7737;51.578;7.268;2023-08-01T03:15:12;99387.47;;;16.50;100.00
15272;BME280;7737;51.578;7.268;2023-08-01T03:17:38;99387.22;;;16.53;100.00
15272;BME280;7737;51.578;7.268;2023-08-01T03:20:06;99388.50;;;16.49;100.00
15272;BME280;7737;51.578;7.268;2023-08-01T03:22:37;99383.41;;;16.45;100.00
15272;BME280;7737;51.578;7.268;2023-08-01T03:25:05;99392.84;;;16.50;100.00
15272;BME280;7737;51.578;7.268;2023-08-01T03:27:32;99403.91;;;16.47;100.00
15272;BME280;7737;51.578;7.268;2023-08-01T03:29:59;99396.13;;;16.43;100.00
15272;BME280;7737;51.578;7.268;2023-08-01T03:32:25;99395.97;;;16.45;100.00
15272;BME280;7737;51.578;7.268;2023-08-01T03:34:52;99394.53;;;16.51;100.00
15272;BME280;7737;51.578;7.268;2023-08-01T03:37:19;99393.97;;;16.47;100.00
15272;BME280;7737;51.578;7.268;2023-08-01T03:39:46;99399.22;;;16.49;100.00
15272;BME280;7737;51.578;7.268;2023-08-01T03:42:13;99406.56;;;16.47;100.00
15272;BME280;7737;51.578;7.268;2023-08-01T03:44:39;99409.94;;;16.49;100.00
15272;BME280;7737;51.578;7.268;2023-08-01T03:47:06;99397.97;;;16.43;100.00
15272;BME280;7737;51.578;7.268;2023-08-01T03:49:32;99407.72;;;16.44;100.00
15272;BME280;7737;51.578;7.268;2023-08-01T03:51:59;99397.13;;;16.42;100.00
15272;BME280;7737;51.578;7.268;2023-08-01T03:54:26;99414.63;;;16.47;100.00
15272;BME280;7737;51.578;7.268;2023-08-01T03:56:53;99411.50;;;16.41;100.00
15272;BME280;7737;51.578;7.268;2023-08-01T03:59:20;99419.13;;;16.46;100.00
15272;BME280;7737;51.578;7.268;2023-08-01T04:01:46;99419.13;;;16.46;100.00
15272;BME280;7737;51.578;7.268;2023-08-01T04:04:13;99415.03;;;16.42;100.00
15272;BME280;7737;51.578;7.268;2023-08-01T04:06:39;99420.97;;;16.45;100.00
15272;BME280;7737;51.578;7.268;2023-08-01T04:09:06;99421.94;;;16.44;100.00
15272;BME280;7737;51.578;7.268;2023-08-01T04:11:33;99428.31;;;16.43;100.00
15272;BME280;7737;51.578;7.268;2023-08-01T04:14:01;99427.34;;;16.35;100.00
15272;BME280;7737;51.578;7.268;2023-08-01T04:16:27;99423.94;;;16.42;100.00
15272;BME280;7737;51.578;7.268;2023-08-01T04:18:54;99430.59;;;16.38;100.00
15272;BME280;7737;51.578;7.268;2023-08-01T04:21:20;99421.69;;;16.28;100.00
15272;BME280;7737;51.578;7.268;2023-08-01T04:23:47;99420.31;;;16.24;100.00
15272;BME280;7737;51.578;7.268;2023-08-01T04:26:13;99424.81;;;16.24;100.00
15272;BME280;7737;51.578;7.268;2023-08-01T04:28:40;99428.50;;;16.23;100.00
15272;BME280;7737;51.578;7.268;2023-08-01T04:31:08;99431.19;;;16.23;100.00
15272;BME280;7737;51.578;7.268;2023-08-01T04:33:34;99434.97;;;16.20;100.00
15272;BME280;7737;51.578;7.268;2023-08-01T04:36:01;99422.28;;;16.22;100.00
15272;BME280;7737;51.578;7.268;2023-08-01T04:38:28;99417.34;;;16.27;100.00
15272;BME280;7737;51.578;7.268;2023-08-01T04:40:54;99422.28;;;16.22;100.00
15272;BME280;7737;51.578;7.268;2023-08-01T04:43:21;99418.88;;;16.20;100.00
15272;BME280;7737;51.578;7.268;2023-08-01T04:45:47;99414.38;;;16.21;100.00
15272;BME280;7737;51.578;7.268;2023-08-01T04:48:15;99419.59;;;16.22;100.00
15272;BME280;7737;51.578;7.268;2023-08-01T04:50:41;99423.44;;;16.20;100.00
15272;BME280;7737;51.578;7.268;2023-08-01T04:53:08;99429.91;;;16.17;100.00
15272;BME280;7737;51.578;7.268;2023-08-01T04:55:36;99422.84;;;16.16;100.00
15272;BME280;7737;51.578;7.268;2023-08-01T04:58:02;99423.13;;;16.13;100.00
15272;BME280;7737;51.578;7.268;2023-08-01T05:00:29;99428.78;;;16.20;100.00
15272;BME280;7737;51.578;7.268;2023-08-01T05:02:56;99429.47;;;16.22;100.00
15272;BME280;7737;51.578;7.268;2023-08-01T05:05:24;99430.19;;;16.24;100.00
15272;BME280;7737;51.578;7.268;2023-08-01T05:07:50;99426.81;;;16.22;100.00
15272;BME280;7737;51.578;7.268;2023-08-01T05:10:17;99422.41;;;16.21;100.00
15272;BME280;7737;51.578;7.268;2023-08-01T05:12:43;99430.03;;;16.16;100.00
15272;BME280;7737;51.578;7.268;2023-08-01T05:15:10;99425.69;;;16.15;100.00
15272;BME280;7737;51.578;7.268;2023-08-01T05:17:38;99432.19;;;16.12;100.00
15272;BME280;7737;51.578;7.268;2023-08-01T05:20:05;99437.22;;;16.15;100.00
15272;BME280;7737;51.578;7.268;2023-08-01T05:22:33;99430.19;;;16.14;100.00
15272;BME280;7737;51.578;7.268;2023-08-01T05:25:00;99437.22;;;16.15;100.00
15272;BME280;7737;51.578;7.268;2023-08-01T05:27:29;99445.00;;;16.18;100.00
15272;BME280;7737;51.578;7.268;2023-08-01T05:29:55;99443.00;;;16.20;100.00
15272;BME280;7737;51.578;7.268;2023-08-01T05:32:22;99442.59;;;16.25;100.00
15272;BME280;7737;51.578;7.268;2023-08-01T05:34:48;99438.34;;;16.32;100.00
15272;BME280;7737;51.578;7.268;2023-08-01T05:37:15;99446.16;;;16.25;100.00
15272;BME280;7737;51.578;7.268;2023-08-01T05:39:43;99438.34;;;16.32;100.00
15272;BME280;7737;51.578;7.268;2023-08-01T05:42:09;99450.91;;;16.31;100.00
15272;BME280;7737;51.578;7.268;2023-08-01T05:44:36;99448.50;;;16.28;100.00
15272;BME280;7737;51.578;7.268;2023-08-01T05:47:03;99440.88;;;16.43;100.00
15272;BME280;7737;51.578;7.268;2023-08-01T05:49:29;99449.06;;;16.41;100.00
15272;BME280;7737;51.578;7.268;2023-08-01T05:51:56;99440.31;;;16.39;100.00
15272;BME280;7737;51.578;7.268;2023-08-01T05:54:23;99442.59;;;16.34;100.00
15272;BME280;7737;51.578;7.268;2023-08-01T05:56:51;99446.50;;;16.50;100.00
15272;BME280;7737;51.578;7.268;2023-08-01T05:59:17;99442.59;;;16.54;100.00
15272;BME280;7737;51.578;7.268;2023-08-01T06:01:45;99438.47;;;16.59;100.00
15272;BME280;7737;51.578;7.268;2023-08-01T06:04:11;99438.94;;;16.55;100.00
15272;BME280;7737;51.578;7.268;2023-08-01T06:06:38;99439.06;;;16.53;100.00
15272;BME280;7737;51.578;7.268;2023-08-01T06:09:04;99444.66;;;16.50;100.00
15272;BME280;7737;51.578;7.268;2023-08-01T06:11:31;99436.09;;;16.47;100.00
15272;BME280;7737;51.578;7.268;2023-08-01T06:14:00;99434.09;;;16.49;100.00
15272;BME280;7737;51.578;7.268;2023-08-01T06:16:26;99441.13;;;16.50;100.00
15272;BME280;7737;51.578;7.268;2023-08-01T06:18:53;99439.47;;;16.49;100.00
15272;BME280;7737;51.578;7.268;2023-08-01T06:21:20;99441.44;;;16.47;100.00
15272;BME280;7737;51.578;7.268;2023-08-01T06:23:46;99444.66;;;16.50;100.00
15272;BME280;7737;51.578;7.268;2023-08-01T06:26:13;99449.66;;;16.55;100.00
15272;BME280;7737;51.578;7.268;2023-08-01T06:28:40;99448.78;;;16.44;100.00
15272;BME280;7737;51.578;7.268;2023-08-01T06:31:08;99444.81;;;16.49;100.00
15272;BME280;7737;51.578;7.268;2023-08-01T06:33:35;99446.13;;;16.54;100.00
15272;BME280;7737;51.578;7.268;2023-08-01T06:36:01;99438.91;;;16.45;100.00
15272;BME280;7737;51.578;7.268;2023-08-01T06:38:28;99437.63;;;16.49;100.00
15272;BME280;7737;51.578;7.268;2023-08-01T06:40:54;99436.66;;;16.60;100.00
15272;BME280;7737;51.578;7.268;2023-08-01T06:43:21;99431.09;;;16.71;100.00
15272;BME280;7737;51.578;7.268;2023-08-01T06:45:49;99440.56;;;16.75;100.00
15272;BME280;7737;51.578;7.268;2023-08-01T06:48:17;99442.56;;;16.63;100.00
15272;BME280;7737;51.578;7.268;2023-08-01T06:50:44;99441.69;;;16.63;100.00
15272;BME280;7737;51.578;7.268;2023-08-01T06:53:11;99434.09;;;16.68;100.00
15272;BME280;7737;51.578;7.268;2023-08-01T06:55:37;99440.47;;;16.57;100.00
15272;BME280;7737;51.578;7.268;2023-08-01T06:58:05;99445.41;;;16.62;100.00
15272;BME280;7737;51.578;7.268;2023-08-01T07:00:32;99440.84;;;16.72;100.00
15272;BME280;7737;51.578;7.268;2023-08-01T07:02:58;99445.63;;;16.68;100.00
15272;BME280;7737;51.578;7.268;2023-08-01T07:05:26;99442.66;;;16.81;100.00
15272;BME280;7737;51.578;7.268;2023-08-01T07:07:53;99451.00;;;16.68;100.00
15272;BME280;7737;51.578;7.268;2023-08-01T07:10:19;99454.22;;;16.81;100.00
15272;BME280;7737;51.578;7.268;2023-08-01T07:12:46;99454.34;;;16.89;100.00
15272;BME280;7737;51.578;7.268;2023-08-01T07:15:13;99454.38;;;16.80;100.00
15272;BME280;7737;51.578;7.268;2023-08-01T07:17:40;99459.97;;;16.96;100.00
15272;BME280;7737;51.578;7.268;2023-08-01T07:20:07;99457.56;;;16.93;100.00
15272;BME280;7737;51.578;7.268;2023-08-01T07:22:35;99464.38;;;17.24;100.00
15272;BME280;7737;51.578;7.268;2023-08-01T07:25:01;99458.69;;;17.27;100.00
15272;BME280;7737;51.578;7.268;2023-08-01T07:27:28;99457.56;;;17.30;100.00
15272;BME280;7737;51.578;7.268;2023-08-01T07:29:54;99455.91;;;17.19;100.00
15272;BME280;7737;51.578;7.268;2023-08-01T07:32:21;99450.41;;;17.21;100.00
15272;BME280;7737;51.578;7.268;2023-08-01T07:34:47;99447.72;;;17.21;100.00
15272;BME280;7737;51.578;7.268;2023-08-01T07:37:14;99439.00;;;17.36;100.00
15272;BME280;7737;51.578;7.268;2023-08-01T07:39:42;99444.78;;;17.41;100.00
15272;BME280;7737;51.578;7.268;2023-08-01T07:42:08;99454.72;;;17.58;100.00
15272;BME280;7737;51.578;7.268;2023-08-01T07:44:35;99454.09;;;17.47;100.00
15272;BME280;7737;51.578;7.268;2023-08-01T07:47:01;99444.81;;;17.32;100.00
15272;BME280;7737;51.578;7.268;2023-08-01T07:49:28;99445.38;;;17.35;100.00
15272;BME280;7737;51.578;7.268;2023-08-01T07:51:55;99435.69;;;17.42;100.00
15272;BME280;7737;51.578;7.268;2023-08-01T07:54:21;99443.16;;;17.76;100.00
15272;BME280;7737;51.578;7.268;2023-08-01T07:56:49;99438.78;;;17.47;100.00
15272;BME280;7737;51.578;7.268;2023-08-01T07:59:15;99439.25;;;17.43;100.00
15272;BME280;7737;51.578;7.268;2023-08-01T08:01:42;99439.94;;;17.45;100.00
15272;BME280;7737;51.578;7.268;2023-08-01T08:04:09;99430.88;;;17.46;100.00
15272;BME280;7737;51.578;7.268;2023-08-01T08:06:35;99434.25;;;17.48;100.00
15272;BME280;7737;51.578;7.268;2023-08-01T08:09:02;99435.66;;;17.52;100.00
15272;BME280;7737;51.578;7.268;2023-08-01T08:11:29;99436.81;;;17.49;100.00
15272;BME280;7737;51.578;7.268;2023-08-01T08:13:57;99438.00;;;17.64;100.00
15272;BME280;7737;51.578;7.268;2023-08-01T08:16:23;99434.94;;;17.59;100.00
15272;BME280;7737;51.578;7.268;2023-08-01T08:18:50;99432.72;;;17.73;100.00
15272;BME280;7737;51.578;7.268;2023-08-01T08:21:16;99438.56;;;17.86;100.00
15272;BME280;7737;51.578;7.268;2023-08-01T08:23:43;99431.19;;;17.88;100.00
15272;BME280;7737;51.578;7.268;2023-08-01T08:26:09;99428.72;;;18.12;100.00
15272;BME280;7737;51.578;7.268;2023-08-01T08:28:36;99437.66;;;17.95;100.00
15272;BME280;7737;51.578;7.268;2023-08-01T08:31:04;99429.41;;;17.96;100.00
15272;BME280;7737;51.578;7.268;2023-08-01T08:33:31;99434.41;;;18.09;100.00
15272;BME280;7737;51.578;7.268;2023-08-01T08:35:57;99441.47;;;18.10;100.00
15272;BME280;7737;51.578;7.268;2023-08-01T08:38:24;99433.31;;;18.19;100.00
15272;BME280;7737;51.578;7.268;2023-08-01T08:40:56;99436.81;;;18.55;100.00
15272;BME280;7737;51.578;7.268;2023-08-01T08:43:26;99428.03;;;18.53;100.00
15272;BME280;7737;51.578;7.268;2023-08-01T08:45:53;99432.50;;;18.62;100.00
15272;BME280;7737;51.578;7.268;2023-08-01T08:48:25;99433.31;;;18.37;100.00
15272;BME280;7737;51.578;7.268;2023-08-01T08:50:52;99434.53;;;18.25;100.00
15272;BME280;7737;51.578;7.268;2023-08-01T08:53:20;99436.31;;;18.16;100.00
15272;BME280;7737;51.578;7.268;2023-08-01T08:55:47;99449.16;;;18.05;100.00
15272;BME280;7737;51.578;7.268;2023-08-01T08:58:15;99434.97;;;17.95;100.00
15272;BME280;7737;51.578;7.268;2023-08-01T09:00:43;99438.78;;;18.10;100.00
15272;BME280;7737;51.578;7.268;2023-08-01T09:03:10;99437.84;;;18.37;100.00
15272;BME280;7737;51.578;7.268;2023-08-01T09:05:45;99439.44;;;18.73;100.00
15272;BME280;7737;51.578;7.268;2023-08-01T09:08:16;99431.75;;;18.78;100.00
15272;BME280;7737;51.578;7.268;2023-08-01T09:10:44;99438.50;;;18.56;100.00
15272;BME280;7737;51.578;7.268;2023-08-01T09:13:11;99437.03;;;18.44;100.00
15272;BME280;7737;51.578;7.268;2023-08-01T09:15:39;99445.16;;;18.27;100.00
15272;BME280;7737;51.578;7.268;2023-08-01T09:18:07;99439.31;;;18.31;100.00
15272;BME280;7737;51.578;7.268;2023-08-01T09:20:42;99440.94;;;18.67;100.00
15272;BME280;7737;51.578;7.268;2023-08-01T09:23:09;99442.69;;;18.76;100.00
15272;BME280;7737;51.578;7.268;2023-08-01T09:25:36;99439.44;;;18.99;100.00
15272;BME280;7737;51.578;7.268;2023-08-01T09:28:03;99432.47;;;18.88;100.00
15272;BME280;7737;51.578;7.268;2023-08-01T09:30:30;99428.91;;;19.55;100.00
15272;BME280;7737;51.578;7.268;2023-08-01T09:32:56;99427.59;;;19.25;100.00
15272;BME280;7737;51.578;7.268;2023-08-01T09:35:23;99424.78;;;19.35;100.00
15272;BME280;7737;51.578;7.268;2023-08-01T09:37:51;99421.13;;;19.44;100.00
15272;BME280;7737;51.578;7.268;2023-08-01T09:40:19;99413.22;;;19.42;100.00
15272;BME280;7737;51.578;7.268;2023-08-01T09:42:45;99418.63;;;19.09;100.00
15272;BME280;7737;51.578;7.268;2023-08-01T09:45:13;99425.44;;;19.29;100.00
15272;BME280;7737;51.578;7.268;2023-08-01T09:47:40;99424.00;;;19.17;100.00
15272;BME280;7737;51.578;7.268;2023-08-01T09:50:09;99412.56;;;19.15;100.00
15272;BME280;7737;51.578;7.268;2023-08-01T09:52:36;99422.88;;;18.85;100.00
15272;BME280;7737;51.578;7.268;2023-08-01T09:55:05;99419.56;;;19.00;100.00
15272;BME280;7737;51.578;7.268;2023-08-01T09:57:34;99414.22;;;19.08;100.00
15272;BME280;7737;51.578;7.268;2023-08-01T10:00:05;99417.84;;;19.24;100.00
15272;BME280;7737;51.578;7.268;2023-08-01T10:02:33;99415.00;;;19.34;100.00
15272;BME280;7737;51.578;7.268;2023-08-01T10:05:00;99413.88;;;19.44;100.00
15272;BME280;7737;51.578;7.268;2023-08-01T10:07:29;99409.72;;;19.58;100.00
15272;BME280;7737;51.578;7.268;2023-08-01T10:09:58;99406.75;;;19.85;100.00
15272;BME280;7737;51.578;7.268;2023-08-01T10:12:27;99408.06;;;19.89;100.00
15272;BME280;7737;51.578;7.268;2023-08-01T10:14:53;99395.59;;;20.04;100.00
15272;BME280;7737;51.578;7.268;2023-08-01T10:17:21;99395.59;;;20.04;100.00
15272;BME280;7737;51.578;7.268;2023-08-01T10:19:49;99397.94;;;19.75;100.00
15272;BME280;7737;51.578;7.268;2023-08-01T10:22:17;99395.94;;;19.85;100.00
15272;BME280;7737;51.578;7.268;2023-08-01T10:24:44;99406.53;;;19.63;100.00
15272;BME280;7737;51.578;7.268;2023-08-01T10:27:13;99423.41;;;18.89;100.00
15272;BME280;7737;51.578;7.268;2023-08-01T10:29:41;99418.41;;;18.68;100.00
15272;BME280;7737;51.578;7.268;2023-08-01T10:32:09;99429.13;;;18.60;100.00
15272;BME280;7737;51.578;7.268;2023-08-01T10:34:36;99424.16;;;18.73;100.00
15272;BME280;7737;51.578;7.268;2023-08-01T10:37:03;99433.38;;;18.71;100.00
15272;BME280;7737;51.578;7.268;2023-08-01T10:39:30;99438.28;;;18.75;100.00
15272;BME280;7737;51.578;7.268;2023-08-01T10:41:58;99442.88;;;18.83;100.00
15272;BME280;7737;51.578;7.268;2023-08-01T10:44:25;99440.41;;;18.90;100.00
15272;BME280;7737;51.578;7.268;2023-08-01T10:46:55;99450.84;;;18.67;100.00
15272;BME280;7737;51.578;7.268;2023-08-01T10:49:33;99451.69;;;18.67;100.00
15272;BME280;7737;51.578;7.268;2023-08-01T10:52:01;99458.34;;;18.55;100.00
15272;BME280;7737;51.578;7.268;2023-08-01T10:54:27;99460.75;;;18.58;100.00
15272;BME280;7737;51.578;7.268;2023-08-01T10:56:56;99463.75;;;18.55;100.00
15272;BME280;7737;51.578;7.268;2023-08-01T10:59:23;99465.72;;;18.53;100.00
15272;BME280;7737;51.578;7.268;2023-08-01T11:01:51;99485.13;;;18.39;100.00
15272;BME280;7737;51.578;7.268;2023-08-01T11:04:20;99487.59;;;18.15;100.00
15272;BME280;7737;51.578;7.268;2023-08-01T11:06:49;99495.47;;;17.81;100.00
15272;BME280;7737;51.578;7.268;2023-08-01T11:09:17;99498.13;;;17.63;100.00
15272;BME280;7737;51.578;7.268;2023-08-01T11:11:45;99493.56;;;17.74;100.00
15272;BME280;7737;51.578;7.268;2023-08-01T11:14:12;99491.78;;;17.82;100.00
15272;BME280;7737;51.578;7.268;2023-08-01T11:16:40;99493.41;;;17.93;100.00
15272;BME280;7737;51.578;7.268;2023-08-01T11:19:17;99488.19;;;17.74;100.00
15272;BME280;7737;51.578;7.268;2023-08-01T11:21:45;99488.81;;;18.20;100.00
15272;BME280;7737;51.578;7.268;2023-08-01T11:24:12;99499.84;;;18.35;100.00
15272;BME280;7737;51.578;7.268;2023-08-01T11:26:41;99498.78;;;18.46;100.00
15272;BME280;7737;51.578;7.268;2023-08-01T11:29:07;99502.03;;;18.93;100.00
15272;BME280;7737;51.578;7.268;2023-08-01T11:31:35;99496.34;;;19.04;100.00
15272;BME280;7737;51.578;7.268;2023-08-01T11:34:01;99492.75;;;19.21;100.00
15272;BME280;7737;51.578;7.268;2023-08-01T11:36:29;99494.78;;;19.19;100.00
15272;BME280;7737;51.578;7.268;2023-08-01T11:38:58;99490.06;;;19.21;100.00
15272;BME280;7737;51.578;7.268;2023-08-01T11:41:26;99498.78;;;19.15;100.00
15272;BME280;7737;51.578;7.268;2023-08-01T11:43:53;99506.16;;;19.38;100.00
15272;BME280;7737;51.578;7.268;2023-08-01T11:46:20;99500.56;;;19.32;100.00
15272;BME280;7737;51.578;7.268;2023-08-01T11:48:47;99497.84;;;19.24;100.00
15272;BME280;7737;51.578;7.268;2023-08-01T11:51:15;99498.34;;;19.53;100.00
15272;BME280;7737;51.578;7.268;2023-08-01T11:53:42;99493.59;;;19.47;100.00
15272;BME280;7737;51.578;7.268;2023-08-01T11:56:20;99491.44;;;19.59;100.00
15272;BME280;7737;51.578;7.268;2023-08-01T11:58:47;99491.56;;;19.49;100.00
15272;BME280;7737;51.578;7.268;2023-08-01T12:01:14;99486.88;;;19.59;100.00
15272;BME280;7737;51.578;7.268;2023-08-01T12:03:44;99486.44;;;19.72;100.00
15272;BME280;7737;51.578;7.268;2023-08-01T12:06:12;99486.59;;;19.78;100.00
15272;BME280;7737;51.578;7.268;2023-08-01T12:08:40;99488.88;;;19.49;100.00
15272;BME280;7737;51.578;7.268;2023-08-01T12:11:19;99494.81;;;19.61;100.00
15272;BME280;7737;51.578;7.268;2023-08-01T12:13:46;99491.16;;;19.86;100.00
15272;BME280;7737;51.578;7.268;2023-08-01T12:16:12;99476.78;;;20.43;100.00
15272;BME280;7737;51.578;7.268;2023-08-01T12:18:40;99464.81;;;20.46;100.00
15272;BME280;7737;51.578;7.268;2023-08-01T12:21:08;99468.16;;;20.80;100.00
15272;BME280;7737;51.578;7.268;2023-08-01T12:23:35;99471.50;;;20.18;100.00
15272;BME280;7737;51.578;7.268;2023-08-01T12:26:02;99461.94;;;20.47;100.00
15272;BME280;7737;51.578;7.268;2023-08-01T12:28:30;99484.88;;;20.68;100.00
15272;BME280;7737;51.578;7.268;2023-08-01T12:30:56;99473.75;;;20.46;100.00
15272;BME280;7737;51.578;7.268;2023-08-01T12:33:24;99473.91;;;20.29;100.00
15272;BME280;7737;51.578;7.268;2023-08-01T12:35:50;99486.06;;;20.33;100.00
15272;BME280;7737;51.578;7.268;2023-08-01T12:38:17;99474.22;;;20.26;100.00
15272;BME280;7737;51.578;7.268;2023-08-01T12:40:43;99475.59;;;20.62;100.00
15272;BME280;7737;51.578;7.268;2023-08-01T12:43:10;99474.75;;;20.78;100.00
15272;BME280;7737;51.578;7.268;2023-08-01T12:45:38;99481.50;;;20.25;100.00
15272;BME280;7737;51.578;7.268;2023-08-01T12:48:04;99485.03;;;20.50;100.00
15272;BME280;7737;51.578;7.268;2023-08-01T12:50:31;99490.44;;;20.74;100.00
15272;BME280;7737;51.578;7.268;2023-08-01T12:52:57;99480.25;;;21.00;100.00
15272;BME280;7737;51.578;7.268;2023-08-01T12:55:24;99469.41;;;21.24;100.00
15272;BME280;7737;51.578;7.268;2023-08-01T12:57:51;99481.13;;;21.48;100.00
15272;BME280;7737;51.578;7.268;2023-08-01T13:00:17;99476.25;;;20.72;100.00